createdAt,value
2022-12-09T00:04:24.777Z,40.39
2022-12-09T00:09:26.977Z,45.48
2022-12-09T00:14:29.224Z,40.79
2022-12-09T00:19:31.474Z,40.75
2022-12-09T00:24:33.436Z,40.51
2022-12-09T00:29:35.644Z,40.24
2022-12-09T00:34:38.136Z,42.62
2022-12-09T00:39:43.510Z,45.92
2022-12-09T00:44:46.512Z,47.45
2022-12-09T00:49:48.648Z,42.68
2022-12-09T00:54:50.865Z,41.42
2022-12-09T00:59:52.925Z,43.99
2022-12-09T01:04:54.978Z,47.34
2022-12-09T01:09:57.258Z,45.03
2022-12-09T01:14:59.378Z,44.69
2022-12-09T01:20:01.695Z,47.56
2022-12-09T01:25:04.091Z,47.56
2022-12-09T01:30:08.156Z,51.08
2022-12-09T01:35:11.176Z,49.48
2022-12-09T01:40:18.394Z,49.77
2022-12-09T01:45:20.736Z,54.55
2022-12-09T01:50:27.266Z,51.92
2022-12-09T01:55:29.974Z,51.57
2022-12-09T02:00:32.421Z,56.89
2022-12-09T02:05:35.492Z,54.79
2022-12-09T02:11:02.812Z,49.75
2022-12-09T02:16:10.508Z,49.04
2022-12-09T02:21:29.517Z,47.04
2022-12-09T02:26:53.492Z,46.88
2022-12-09T02:32:13.827Z,47.80
2022-12-09T02:37:20.965Z,47.77
2022-12-09T02:42:32.965Z,51.45
2022-12-09T02:47:41.570Z,55.79
2022-12-09T02:52:48.390Z,53.50
2022-12-09T02:57:55.914Z,50.10
2022-12-09T03:03:03.131Z,52.94
2022-12-09T03:08:17.546Z,56.72
2022-12-09T03:13:26.240Z,52.34
2022-12-09T03:18:30.084Z,51.37
2022-12-09T03:23:35.783Z,59.86
2022-12-09T03:28:43.654Z,58.74
2022-12-09T03:33:50.553Z,52.83
2022-12-09T03:38:54.967Z,55.16
2022-12-09T03:44:16.924Z,53.48
2022-12-09T03:49:19.571Z,54.23
2022-12-09T03:54:34.851Z,54.06
2022-12-09T03:59:37.171Z,57.77
2022-12-09T04:04:42.136Z,54.92
2022-12-09T04:09:44.521Z,52.10
2022-12-09T04:14:47.092Z,51.16
2022-12-09T04:19:49.307Z,56.88
2022-12-09T04:24:51.332Z,55.30
2022-12-09T04:29:53.365Z,55.09
2022-12-09T04:34:56.288Z,52.82
2022-12-09T04:39:58.585Z,50.23
2022-12-09T04:45:02.266Z,47.82
2022-12-09T04:50:06.219Z,48.72
2022-12-09T04:55:09.926Z,48.83
2022-12-09T05:00:12.739Z,45.60
2022-12-09T05:05:15.909Z,46.27
2022-12-09T05:10:19.005Z,45.72
2022-12-09T05:15:21.744Z,50.75
2022-12-09T05:20:28.090Z,53.09
2022-12-09T05:25:30.334Z,50.63
2022-12-09T05:30:32.431Z,52.05
2022-12-09T05:35:42.616Z,49.91
2022-12-09T05:40:52.000Z,47.61
2022-12-09T05:45:54.159Z,51.90
2022-12-09T05:51:06.795Z,48.61
2022-12-09T05:56:09.778Z,46.58
2022-12-09T06:01:13.069Z,46.89
2022-12-09T06:06:18.220Z,48.43
2022-12-09T06:11:22.083Z,46.94
2022-12-09T06:16:25.069Z,45.28
2022-12-09T06:21:27.367Z,45.26
2022-12-09T06:26:30.215Z,52.71
2022-12-09T06:31:32.719Z,54.58
2022-12-09T06:36:35.649Z,50.49
2022-12-09T06:41:40.134Z,52.63
2022-12-09T06:46:42.305Z,54.23
2022-12-09T06:51:44.746Z,50.58
2022-12-09T06:56:47.201Z,54.78
2022-12-09T07:01:49.855Z,56.16
2022-12-09T07:06:52.616Z,52.62
2022-12-09T07:11:54.755Z,53.39
2022-12-09T07:16:56.789Z,50.53
2022-12-09T07:21:59.866Z,54.58
2022-12-09T07:27:06.349Z,52.84
2022-12-09T07:32:11.697Z,54.68
2022-12-09T07:37:13.948Z,52.51
2022-12-09T07:42:16.265Z,54.31
2022-12-09T07:47:28.120Z,56.16
2022-12-09T07:52:30.707Z,57.40
2022-12-09T07:57:34.152Z,59.21
2022-12-09T08:02:36.715Z,57.91
2022-12-09T08:07:43.913Z,57.96
2022-12-09T08:12:46.698Z,56.97
2022-12-09T08:17:48.882Z,52.08
2022-12-09T08:23:01.544Z,57.38
2022-12-09T08:28:04.899Z,55.28
2022-12-09T08:33:07.251Z,53.88
2022-12-09T08:38:09.666Z,52.38
2022-12-09T08:43:12.113Z,51.98
2022-12-09T08:48:14.359Z,57.64
2022-12-09T08:53:16.656Z,54.05
2022-12-09T08:58:18.677Z,53.34
2022-12-09T09:03:20.842Z,52.37
2022-12-09T09:08:23.454Z,49.84
2022-12-09T09:13:26.448Z,55.80
2022-12-09T09:18:28.656Z,53.56
2022-12-09T09:23:31.424Z,49.81
2022-12-09T09:28:34.077Z,49.21
2022-12-09T09:33:37.210Z,48.18
2022-12-09T09:38:40.211Z,52.67
2022-12-09T09:43:43.121Z,50.83
2022-12-09T09:48:47.068Z,51.66
2022-12-09T09:53:51.320Z,54.00
2022-12-09T09:59:08.293Z,51.55
2022-12-09T10:04:36.663Z,49.36
2022-12-09T10:10:01.705Z,48.99
2022-12-09T10:15:19.617Z,51.61
2022-12-09T10:20:26.565Z,52.43
2022-12-09T10:25:32.123Z,54.64
2022-12-09T10:30:41.654Z,56.55
2022-12-09T10:35:47.666Z,52.85
2022-12-09T10:41:11.905Z,52.09
2022-12-09T10:46:20.013Z,54.71
2022-12-09T10:51:29.225Z,51.19
2022-12-09T10:56:35.062Z,53.65
2022-12-09T11:01:52.762Z,50.80
2022-12-09T11:07:01.353Z,51.10
2022-12-09T11:12:15.084Z,50.46
2022-12-09T11:17:23.444Z,50.25
2022-12-09T11:22:40.335Z,48.99
2022-12-09T11:27:59.779Z,54.88
2022-12-09T11:33:14.349Z,58.21
2022-12-09T11:38:36.386Z,59.38
2022-12-09T11:43:42.950Z,60.01
2022-12-09T11:48:49.732Z,59.04
2022-12-09T11:54:01.799Z,55.61
2022-12-09T11:59:13.727Z,58.78
2022-12-09T12:04:27.288Z,53.00
2022-12-09T12:09:40.211Z,57.10
2022-12-09T12:14:43.986Z,54.20
2022-12-09T12:19:50.707Z,51.98
2022-12-09T12:25:22.342Z,54.26
2022-12-09T12:30:33.467Z,50.61
2022-12-09T12:36:01.102Z,49.87
2022-12-09T12:41:24.783Z,47.26
2022-12-09T12:47:01.682Z,47.33
2022-12-09T12:52:03.640Z,45.29
2022-12-09T12:57:29.123Z,44.33
2022-12-09T13:02:45.771Z,44.81
2022-12-09T13:08:03.900Z,45.46
2022-12-09T13:13:19.365Z,45.22
2022-12-09T13:18:21.271Z,44.52
2022-12-09T13:23:32.176Z,45.91
2022-12-09T13:28:47.211Z,45.88
2022-12-09T13:34:38.466Z,46.30
2022-12-09T13:39:40.367Z,47.63
2022-12-09T13:44:42.472Z,45.53
2022-12-09T13:50:00.387Z,46.01
2022-12-09T13:55:02.560Z,47.13
2022-12-09T14:00:07.686Z,45.44
2022-12-09T14:05:15.023Z,44.31
2022-12-09T14:10:38.426Z,44.63
2022-12-09T14:15:40.735Z,45.55
2022-12-09T14:20:42.825Z,45.46
2022-12-09T14:25:57.998Z,45.06
2022-12-09T14:31:06.616Z,45.21
2022-12-09T14:36:13.155Z,47.54
2022-12-09T14:41:29.315Z,46.80
2022-12-09T14:46:34.878Z,47.08
2022-12-09T14:51:44.401Z,46.78
2022-12-09T14:56:50.511Z,48.31
2022-12-09T15:01:56.477Z,47.88
2022-12-09T15:07:22.377Z,47.89
2022-12-09T15:12:37.387Z,47.60
2022-12-09T15:17:45.243Z,46.17
2022-12-09T15:22:52.804Z,48.49
2022-12-09T15:28:12.910Z,49.95
2022-12-09T15:33:17.356Z,48.26
2022-12-09T15:38:19.919Z,47.71
2022-12-09T15:43:22.107Z,46.75
2022-12-09T15:48:34.176Z,45.34
2022-12-09T15:53:36.137Z,44.83
2022-12-09T15:59:01.203Z,45.63
2022-12-09T16:04:04.999Z,45.26
2022-12-09T16:09:20.693Z,43.84
2022-12-09T16:14:24.100Z,45.34
2022-12-09T16:19:36.028Z,45.30
2022-12-09T16:30:20.606Z,45.23
2022-12-09T16:35:47.242Z,46.74
2022-12-09T16:40:49.119Z,46.50
2022-12-09T16:45:55.531Z,44.99
2022-12-09T16:51:11.729Z,45.23
2022-12-09T16:56:23.059Z,44.92
2022-12-09T17:01:34.636Z,44.98
2022-12-09T17:06:36.679Z,44.86
2022-12-09T17:11:40.980Z,44.15
2022-12-09T17:16:45.051Z,43.89
2022-12-09T17:21:47.916Z,48.17
2022-12-09T17:26:49.943Z,45.63
2022-12-09T17:31:52.467Z,44.60
2022-12-09T17:36:55.340Z,50.56
2022-12-09T17:41:57.717Z,49.60
2022-12-09T17:46:59.811Z,47.62
2022-12-09T17:52:01.752Z,46.64
2022-12-09T17:57:04.088Z,45.15
2022-12-09T18:02:06.263Z,47.65
2022-12-09T18:07:08.258Z,53.14
2022-12-09T18:12:10.573Z,49.75
2022-12-09T18:17:12.876Z,51.90
2022-12-09T18:22:14.957Z,49.31
2022-12-09T18:27:16.971Z,56.33
2022-12-09T18:32:19.058Z,56.12
2022-12-09T18:37:21.912Z,53.75
2022-12-09T18:42:23.939Z,51.69
2022-12-09T18:47:25.898Z,53.50
2022-12-09T18:52:27.865Z,51.38
2022-12-09T18:57:30.990Z,50.82
2022-12-09T19:02:33.312Z,49.83
2022-12-09T19:07:35.378Z,51.41
2022-12-09T19:12:47.177Z,50.41
2022-12-09T19:17:50.316Z,48.83
2022-12-09T19:22:52.530Z,48.59
2022-12-09T19:27:54.438Z,47.50
2022-12-09T19:32:56.470Z,48.80
2022-12-09T19:38:01.388Z,47.47
2022-12-09T19:43:04.063Z,45.68
2022-12-09T19:48:07.163Z,46.17
2022-12-09T19:53:09.490Z,49.38
2022-12-09T19:58:11.556Z,50.65
2022-12-09T20:03:13.813Z,48.33
2022-12-09T20:08:15.828Z,47.71
2022-12-09T20:13:17.930Z,45.61
2022-12-09T20:18:20.653Z,48.52
2022-12-09T20:23:22.647Z,50.63
2022-12-09T20:28:24.536Z,47.89
2022-12-09T20:33:26.522Z,47.27
2022-12-09T20:38:28.423Z,45.51
2022-12-09T20:43:30.955Z,46.60
2022-12-09T20:48:33.045Z,47.05
2022-12-09T20:53:36.348Z,45.49
2022-12-09T20:58:39.217Z,45.60
2022-12-09T21:03:42.050Z,45.38
2022-12-09T21:08:44.831Z,43.73
2022-12-09T21:13:49.872Z,44.18
2022-12-09T21:18:54.312Z,43.62
2022-12-09T21:23:56.628Z,42.95
2022-12-09T21:29:00.842Z,43.32
2022-12-09T21:34:05.724Z,51.27
2022-12-09T21:39:07.720Z,55.51
2022-12-09T21:44:14.261Z,50.57
2022-12-09T21:49:16.266Z,49.76
2022-12-09T21:54:18.181Z,48.37
2022-12-09T21:59:20.155Z,47.26
2022-12-09T22:04:22.427Z,46.74
2022-12-09T22:09:24.749Z,46.58
2022-12-09T22:14:26.787Z,45.18
2022-12-09T22:19:28.896Z,45.27
2022-12-09T22:24:30.799Z,44.24
2022-12-09T22:29:32.733Z,43.82
2022-12-09T22:34:34.748Z,43.72
2022-12-09T22:39:37.294Z,43.03
2022-12-09T22:44:39.691Z,43.22
2022-12-09T22:49:41.669Z,42.17
2022-12-09T22:54:43.642Z,42.60
2022-12-09T22:59:45.633Z,41.78
2022-12-09T23:04:47.726Z,43.46
2022-12-09T23:09:50.305Z,43.72
2022-12-09T23:14:52.267Z,43.04
2022-12-09T23:19:54.288Z,43.17
2022-12-09T23:24:56.301Z,42.44
2022-12-09T23:29:58.262Z,43.01
2022-12-09T23:35:04.422Z,42.62
2022-12-09T23:40:10.015Z,42.90
2022-12-09T23:45:12.111Z,42.87
2022-12-09T23:50:14.086Z,41.94
2022-12-09T23:55:16.197Z,42.80
